Fortsville, New York
Current Conditions -  °F | °C
As of 12:53 PM on Sunday 21 Dec 2014 (Local Time) from KGFL Reporting Station
Overcast Overcast  
Wind Chill: 27°   Ceiling: 3400
Heat Index: 27°   Visibility: 7mi
Dew Point: 22°   Wind: 3mph
Humidity: 81%   Direction: 80°E
Pressure: 30.33"   Gusts: NA
Location:  43.1979°N, 73.6839°W
Report Text: KGFL 211753Z AUTO 08003KT 7SM OVC034 M03/M06 A3033 RMK AO2 SLP280 60000 T10281056 11022 21044 58010
Loading
Personal Weather Stations






























Interactive Weather Map New forecast layout! Learn more

10-Day Weather Forecast

Advertisements
Track Severe Weather on mobile